createdAt,value
2018-03-21T00:00:59.766Z,93022.80
2018-03-21T00:03:26.157Z,93017.34
2018-03-21T00:05:52.509Z,93003.75
2018-03-21T00:08:19.141Z,93006.89
2018-03-21T00:10:45.628Z,93007.95
2018-03-21T00:13:11.985Z,93012.52
2018-03-21T00:15:38.608Z,93004.23
2018-03-21T00:18:05.027Z,92999.38
2018-03-21T00:20:31.543Z,92989.45
2018-03-21T00:22:57.979Z,92977.47
2018-03-21T00:25:24.392Z,92974.33
2018-03-21T00:27:50.873Z,92968.48
2018-03-21T00:30:17.396Z,92967.62
2018-03-21T00:32:43.782Z,92973.27
2018-03-21T00:35:10.193Z,92974.98
2018-03-21T00:37:36.632Z,92973.04
2018-03-21T00:40:03.238Z,92972.09
2018-03-21T00:42:29.690Z,92976.24
2018-03-21T00:44:56.112Z,92974.84
2018-03-21T00:47:22.509Z,92962.75
2018-03-21T00:49:48.982Z,92960.05
2018-03-21T00:52:15.511Z,92958.05
2018-03-21T00:54:41.936Z,92957.64
2018-03-21T00:57:08.384Z,92954.53
2018-03-21T00:59:34.834Z,92954.19
2018-03-21T01:02:01.312Z,92945.48
2018-03-21T01:04:27.800Z,92957.69
2018-03-21T01:06:54.177Z,92958.81
2018-03-21T01:09:20.598Z,92963.03
2018-03-21T01:11:46.956Z,92962.20
2018-03-21T01:14:13.312Z,92961.68
2018-03-21T01:16:39.702Z,92976.22
2018-03-21T01:19:06.120Z,92977.58
2018-03-21T01:21:32.595Z,92979.75
2018-03-21T01:23:58.974Z,92982.48
2018-03-21T01:26:25.286Z,92991.55
2018-03-21T01:28:51.658Z,92982.01
2018-03-21T01:31:18.153Z,92989.92
2018-03-21T01:33:44.451Z,92989.98
2018-03-21T01:36:10.881Z,92990.73
2018-03-21T01:38:37.338Z,92991.33
2018-03-21T01:41:03.750Z,92979.73
2018-03-21T01:43:30.077Z,92975.88
2018-03-21T01:45:56.469Z,92961.47
2018-03-21T01:48:22.774Z,92959.48
2018-03-21T01:50:49.211Z,92949.87
2018-03-21T01:53:15.609Z,92930.20
2018-03-21T01:55:41.929Z,92951.63
2018-03-21T01:58:08.339Z,92959.06
2018-03-21T02:00:34.811Z,92955.75
2018-03-21T02:03:01.307Z,92937.98
2018-03-21T02:05:28.658Z,92943.24
2018-03-21T02:07:54.995Z,92938.86
2018-03-21T02:10:21.488Z,92929.77
2018-03-21T02:12:47.914Z,92927.37
2018-03-21T02:15:14.285Z,92930.05
2018-03-21T02:17:40.611Z,92933.63
2018-03-21T02:20:07.084Z,92931.23
2018-03-21T02:22:33.423Z,92926.30
2018-03-21T02:24:59.780Z,92925.27
2018-03-21T02:27:26.154Z,92925.42
2018-03-21T02:29:52.674Z,92924.30
2018-03-21T02:32:19.016Z,92920.23
2018-03-21T02:34:45.421Z,92912.98
2018-03-21T02:37:11.760Z,92910.95
2018-03-21T02:39:38.151Z,92909.19
2018-03-21T02:42:04.503Z,92905.37
2018-03-21T02:44:30.828Z,92905.37
2018-03-21T02:46:57.198Z,92919.59
2018-03-21T02:49:23.977Z,92920.07
2018-03-21T02:51:50.298Z,92914.40
2018-03-21T02:54:16.592Z,92907.67
2018-03-21T02:56:42.965Z,92913.69
2018-03-21T02:59:09.332Z,92911.60
2018-03-21T03:01:35.736Z,92911.19
2018-03-21T03:04:02.109Z,92911.53
2018-03-21T03:06:28.467Z,92915.32
2018-03-21T03:08:54.790Z,92910.41
2018-03-21T03:11:21.149Z,92920.85
2018-03-21T03:13:47.504Z,92915.25
2018-03-21T03:16:13.862Z,92915.89
2018-03-21T03:18:40.232Z,92909.83
2018-03-21T03:21:06.681Z,92902.12
2018-03-21T03:23:33.058Z,92908.05
2018-03-21T03:25:59.546Z,92912.78
2018-03-21T03:28:25.990Z,92902.28
2018-03-21T03:30:52.421Z,92903.45
2018-03-21T03:33:18.811Z,92899.73
2018-03-21T03:35:45.321Z,92893.80
2018-03-21T03:38:11.632Z,92893.23
2018-03-21T03:40:38.024Z,92894.36
2018-03-21T03:43:04.381Z,92902.19
2018-03-21T03:45:30.759Z,92903.95
2018-03-21T03:47:57.133Z,92913.41
2018-03-21T03:50:23.555Z,92916.81
2018-03-21T03:52:49.845Z,92916.88
2018-03-21T03:55:16.253Z,92908.68
2018-03-21T03:57:42.589Z,92899.69
2018-03-21T04:00:09.047Z,92904.62
2018-03-21T04:02:35.580Z,92907.28
2018-03-21T04:05:01.955Z,92896.32
2018-03-21T04:07:28.404Z,92902.94
2018-03-21T04:09:54.891Z,92910.27
2018-03-21T04:12:21.229Z,92916.91
2018-03-21T04:14:47.618Z,92915.17
2018-03-21T04:17:14.852Z,92920.94
2018-03-21T04:19:41.280Z,92930.31
2018-03-21T04:22:07.788Z,92937.31
2018-03-21T04:24:34.240Z,92943.27
2018-03-21T04:27:00.587Z,92949.41
2018-03-21T04:29:26.959Z,92950.63
2018-03-21T04:31:53.319Z,92947.07
2018-03-21T04:34:19.656Z,92950.05
2018-03-21T04:36:46.237Z,92951.80
2018-03-21T04:39:13.357Z,92962.45
2018-03-21T04:41:39.838Z,92964.00
2018-03-21T04:44:06.175Z,92969.97
2018-03-21T04:46:32.591Z,92972.04
2018-03-21T04:48:58.989Z,92983.62
2018-03-21T04:51:25.502Z,92981.37
2018-03-21T04:53:52.099Z,92969.14
2018-03-21T04:56:18.447Z,92980.77
2018-03-21T04:58:44.839Z,92990.27
2018-03-21T05:01:11.410Z,92987.47
2018-03-21T05:03:37.816Z,92978.91
2018-03-21T05:06:04.218Z,92984.42
2018-03-21T05:08:30.580Z,92987.33
2018-03-21T05:10:57.077Z,92991.38
2018-03-21T05:13:23.440Z,92985.36
2018-03-21T05:15:49.806Z,92978.23
2018-03-21T05:18:16.162Z,92981.53
2018-03-21T05:20:42.542Z,92981.31
2018-03-21T05:23:08.952Z,92988.52
2018-03-21T05:25:35.334Z,92989.27
2018-03-21T05:28:01.784Z,92981.63
2018-03-21T05:30:28.198Z,92993.54
2018-03-21T05:32:54.958Z,92987.61
2018-03-21T05:35:21.369Z,92984.42
2018-03-21T05:37:47.884Z,92991.56
2018-03-21T05:40:14.319Z,92994.63
2018-03-21T05:42:40.692Z,92993.42
2018-03-21T05:45:07.124Z,92996.95
2018-03-21T05:47:33.458Z,92993.44
2018-03-21T05:50:00.869Z,92994.84
2018-03-21T05:52:27.262Z,92992.94
2018-03-21T05:54:53.630Z,92998.56
2018-03-21T05:57:20.018Z,92996.55
2018-03-21T05:59:46.447Z,92994.70
2018-03-21T06:02:12.851Z,93009.52
2018-03-21T06:04:39.224Z,93023.14
2018-03-21T06:07:05.574Z,93018.19
2018-03-21T06:09:31.918Z,93016.08
2018-03-21T06:11:58.387Z,93020.41
2018-03-21T06:14:24.796Z,93021.45
2018-03-21T06:16:51.121Z,93018.77
2018-03-21T06:19:17.467Z,93022.59
2018-03-21T06:21:43.964Z,93032.73
2018-03-21T06:24:11.321Z,93025.77
2018-03-21T06:26:37.705Z,93024.08
2018-03-21T06:29:04.465Z,93030.12
2018-03-21T06:31:30.969Z,93033.98
2018-03-21T06:33:57.464Z,93037.70
2018-03-21T06:36:24.043Z,93018.92
2018-03-21T06:38:51.108Z,93014.25
2018-03-21T06:41:17.522Z,92987.28
2018-03-21T06:43:43.924Z,92989.86
2018-03-21T06:46:10.376Z,92983.84
2018-03-21T06:48:36.828Z,92976.80
2018-03-21T06:51:03.312Z,92970.70
2018-03-21T06:53:29.745Z,92974.03
2018-03-21T06:55:56.098Z,92974.27
2018-03-21T06:58:22.471Z,92995.22
2018-03-21T07:00:48.905Z,92979.69
2018-03-21T07:03:15.314Z,92987.41
2018-03-21T07:05:41.744Z,92983.91
2018-03-21T07:08:08.614Z,92996.37
2018-03-21T07:10:35.051Z,93002.03
2018-03-21T07:13:01.494Z,93022.16
2018-03-21T07:15:40.210Z,93024.68
2018-03-21T07:18:06.595Z,93025.67
2018-03-21T07:20:33.101Z,93014.58
2018-03-21T07:22:59.582Z,93003.98
2018-03-21T07:25:26.130Z,93004.75
2018-03-21T07:27:52.613Z,93015.28
2018-03-21T07:30:19.052Z,92997.80
2018-03-21T07:32:45.555Z,93001.76
2018-03-21T07:35:11.970Z,92955.37
2018-03-21T07:37:38.438Z,92980.11
2018-03-21T07:40:04.911Z,92983.83
2018-03-21T07:42:31.377Z,93006.56
2018-03-21T07:44:57.833Z,93000.97
2018-03-21T07:47:24.589Z,92986.80
2018-03-21T07:49:51.253Z,92965.66
2018-03-21T07:52:18.333Z,92963.24
2018-03-21T07:54:45.448Z,92975.77
2018-03-21T07:57:11.943Z,92969.50
2018-03-21T07:59:38.417Z,92963.28
2018-03-21T08:02:04.992Z,92962.87
2018-03-21T08:04:31.506Z,92975.05
2018-03-21T08:06:58.053Z,92981.33
2018-03-21T08:09:24.765Z,92980.41
2018-03-21T08:11:51.382Z,92984.62
2018-03-21T08:14:18.258Z,92996.27
2018-03-21T08:16:44.721Z,92992.66
2018-03-21T08:19:11.157Z,92996.63
2018-03-21T08:21:37.855Z,93005.20
2018-03-21T08:24:04.408Z,93016.27
2018-03-21T08:26:30.871Z,93012.23
2018-03-21T08:28:57.361Z,93012.88
2018-03-21T08:31:23.901Z,93006.33
2018-03-21T08:33:50.345Z,93002.36
2018-03-21T08:36:16.777Z,93000.33
2018-03-21T08:38:43.214Z,92989.06
2018-03-21T08:41:09.964Z,92977.37
2018-03-21T08:43:36.344Z,92975.02
2018-03-21T08:46:02.865Z,92966.48
2018-03-21T08:48:29.261Z,92952.08
2018-03-21T08:50:55.953Z,92975.22
2018-03-21T08:53:22.456Z,92977.89
2018-03-21T08:55:48.918Z,92990.50
2018-03-21T08:58:15.489Z,93001.59
2018-03-21T09:00:42.142Z,92996.66
2018-03-21T09:03:08.571Z,93021.70
2018-03-21T09:05:34.915Z,93034.23
2018-03-21T09:08:01.295Z,93036.55
2018-03-21T09:10:27.816Z,93061.54
2018-03-21T09:12:54.258Z,93059.81
2018-03-21T09:15:20.644Z,93062.65
2018-03-21T09:17:47.046Z,93071.09
2018-03-21T09:20:13.558Z,93065.77
2018-03-21T09:22:40.047Z,93065.50
2018-03-21T09:25:06.457Z,93061.73
2018-03-21T09:27:32.894Z,93061.48
2018-03-21T09:29:59.399Z,93069.84
2018-03-21T09:32:25.779Z,93052.80
2018-03-21T09:34:52.180Z,93037.38
2018-03-21T09:37:18.638Z,92988.13
2018-03-21T09:39:45.042Z,92993.95
2018-03-21T09:42:11.443Z,92973.50
2018-03-21T09:44:37.862Z,92973.72
2018-03-21T09:47:19.126Z,92979.48
2018-03-21T09:49:45.522Z,92995.03
2018-03-21T09:52:11.915Z,93003.03
2018-03-21T09:54:42.242Z,92995.98
2018-03-21T09:57:08.598Z,92999.55
2018-03-21T09:59:34.909Z,92993.49
2018-03-21T10:02:01.336Z,93007.48
2018-03-21T10:04:27.728Z,93008.77
2018-03-21T10:06:54.280Z,92986.51
2018-03-21T10:09:20.703Z,93013.53
2018-03-21T10:11:47.183Z,93013.85
2018-03-21T10:14:13.632Z,92993.16
2018-03-21T10:16:40.000Z,92986.86
2018-03-21T10:19:06.417Z,92969.87
2018-03-21T10:21:32.788Z,92950.91
2018-03-21T10:23:59.167Z,92967.31
2018-03-21T10:26:25.544Z,92979.13
2018-03-21T10:28:51.938Z,92972.52
2018-03-21T10:31:18.543Z,92985.62
2018-03-21T10:33:45.826Z,92968.16
2018-03-21T10:36:12.172Z,92978.57
2018-03-21T10:38:38.575Z,92989.42
2018-03-21T10:41:05.065Z,92985.86
2018-03-21T10:43:31.493Z,92977.60
2018-03-21T10:45:58.012Z,92981.66
2018-03-21T10:48:24.620Z,92968.88
2018-03-21T10:50:51.133Z,92954.43
2018-03-21T10:53:18.897Z,92962.02
2018-03-21T10:55:45.424Z,92948.00
2018-03-21T10:58:11.822Z,92934.48
2018-03-21T11:00:38.559Z,92961.65
2018-03-21T11:03:05.057Z,92952.25
2018-03-21T11:05:31.433Z,92965.87
2018-03-21T11:07:57.910Z,92958.24
2018-03-21T11:10:24.447Z,92964.33
2018-03-21T11:12:50.884Z,92970.64
2018-03-21T11:15:19.053Z,92986.80
2018-03-21T11:17:45.545Z,92988.24
2018-03-21T11:20:11.963Z,92992.12
2018-03-21T11:22:38.380Z,93002.88
2018-03-21T11:25:05.714Z,92974.80
2018-03-21T11:27:32.165Z,92987.89
2018-03-21T11:29:58.750Z,92981.35
2018-03-21T11:32:25.162Z,92985.23
2018-03-21T11:34:51.486Z,92981.81
2018-03-21T11:37:18.005Z,92975.43
2018-03-21T11:39:44.452Z,92961.05
2018-03-21T11:42:10.988Z,92959.45
2018-03-21T11:44:37.446Z,92952.80
2018-03-21T11:47:03.933Z,92935.69
2018-03-21T11:49:30.389Z,92933.91
2018-03-21T11:51:56.954Z,92939.77
2018-03-21T11:54:23.415Z,92940.16
2018-03-21T11:56:49.937Z,92950.08
2018-03-21T11:59:16.473Z,92934.48
2018-03-21T12:01:43.060Z,92941.05
2018-03-21T12:04:09.482Z,92936.30
2018-03-21T12:06:35.966Z,92950.06
2018-03-21T12:09:02.787Z,92939.39
2018-03-21T12:11:30.355Z,92940.85
2018-03-21T12:13:56.777Z,92948.94
2018-03-21T12:16:23.292Z,92946.39
2018-03-21T12:18:49.659Z,92966.46
2018-03-21T12:21:16.370Z,92959.72
2018-03-21T12:23:42.963Z,92958.64
2018-03-21T12:26:09.319Z,92971.13
2018-03-21T12:28:35.722Z,92965.84
2018-03-21T12:31:02.231Z,92981.31
2018-03-21T12:33:28.672Z,92966.86
2018-03-21T12:35:55.128Z,92979.38
2018-03-21T12:38:21.641Z,92992.73
2018-03-21T12:40:48.186Z,92989.09
2018-03-21T12:43:14.558Z,92992.09
2018-03-21T12:45:41.162Z,93001.46
2018-03-21T12:48:07.575Z,92983.96
2018-03-21T12:50:34.181Z,92988.50
2018-03-21T12:53:00.749Z,92978.89
2018-03-21T12:55:27.582Z,92992.27
2018-03-21T12:57:54.012Z,92970.78
2018-03-21T13:00:20.607Z,92977.31
2018-03-21T13:02:47.101Z,92979.83
2018-03-21T13:05:13.509Z,92969.94
2018-03-21T13:07:40.171Z,92979.92
2018-03-21T13:10:06.764Z,92985.70
2018-03-21T13:12:33.239Z,92992.47
2018-03-21T13:15:00.616Z,93001.95
2018-03-21T13:17:27.040Z,92992.08
2018-03-21T13:19:53.577Z,93002.58
2018-03-21T13:22:20.182Z,93013.78
2018-03-21T13:24:46.624Z,93007.18
2018-03-21T13:27:13.179Z,93011.80
2018-03-21T13:29:39.563Z,93015.20
2018-03-21T13:32:06.033Z,93009.23
2018-03-21T13:34:32.399Z,93015.38
2018-03-21T13:36:58.923Z,93006.84
2018-03-21T13:39:25.434Z,93004.42
2018-03-21T13:41:52.000Z,93002.72
2018-03-21T13:44:18.527Z,93000.08
2018-03-21T13:46:44.937Z,92991.86
2018-03-21T13:49:11.604Z,93005.86
2018-03-21T13:51:38.392Z,92994.95
2018-03-21T13:54:04.900Z,92987.55
2018-03-21T13:56:31.364Z,92999.55
2018-03-21T13:58:58.053Z,93002.74
2018-03-21T14:01:24.595Z,92997.90
2018-03-21T14:03:51.078Z,92993.27
2018-03-21T14:06:18.023Z,92991.02
2018-03-21T14:08:44.419Z,92993.72
2018-03-21T14:11:10.919Z,93002.98
2018-03-21T14:13:37.605Z,93011.98
2018-03-21T14:16:04.013Z,93020.94
2018-03-21T14:18:30.510Z,93028.49
2018-03-21T14:20:57.166Z,93033.14
2018-03-21T14:23:23.649Z,93036.11
2018-03-21T14:25:50.069Z,93050.73
2018-03-21T14:28:17.001Z,93061.42
2018-03-21T14:30:43.537Z,93064.95
2018-03-21T14:33:09.986Z,93069.23
2018-03-21T14:35:36.412Z,93083.80
2018-03-21T14:38:02.799Z,93083.53
2018-03-21T14:40:29.381Z,93091.77
2018-03-21T14:42:55.843Z,93090.01
2018-03-21T14:45:22.433Z,93105.32
2018-03-21T14:47:48.788Z,93109.91
2018-03-21T14:50:15.570Z,93110.10
2018-03-21T14:52:42.118Z,93121.25
2018-03-21T14:55:08.567Z,93128.80
2018-03-21T14:57:35.294Z,93133.48
2018-03-21T15:00:01.685Z,93140.40
2018-03-21T15:02:28.627Z,93152.16
2018-03-21T15:04:55.277Z,93151.50
2018-03-21T15:07:21.732Z,93153.09
2018-03-21T15:09:48.148Z,93153.99
2018-03-21T15:12:16.197Z,93160.89
2018-03-21T15:14:43.025Z,93152.38
2018-03-21T15:17:09.832Z,93163.77
2018-03-21T15:19:36.473Z,93160.09
2018-03-21T15:22:04.054Z,93161.93
2018-03-21T15:24:30.750Z,93169.64
2018-03-21T15:26:57.183Z,93167.98
2018-03-21T15:29:23.604Z,93173.42
2018-03-21T15:31:50.540Z,93174.33
2018-03-21T15:34:17.063Z,93183.06
2018-03-21T15:36:43.504Z,93189.83
2018-03-21T15:39:09.998Z,93193.12
2018-03-21T15:41:36.554Z,93206.54
2018-03-21T15:44:03.027Z,93221.82
2018-03-21T15:46:29.550Z,93235.73
2018-03-21T15:48:56.561Z,93232.64
2018-03-21T15:51:23.118Z,93246.50
2018-03-21T15:53:49.792Z,93239.00
2018-03-21T15:56:16.399Z,93240.19
2018-03-21T15:58:42.866Z,93242.27
2018-03-21T16:01:09.294Z,93242.73
2018-03-21T16:03:35.832Z,93256.26
2018-03-21T16:06:02.755Z,93257.09
2018-03-21T16:08:29.223Z,93257.23
2018-03-21T16:10:55.828Z,93255.54
2018-03-21T16:13:22.390Z,93260.72
2018-03-21T16:15:48.806Z,93263.57
2018-03-21T16:18:15.291Z,93285.39
2018-03-21T16:20:41.844Z,93293.20
2018-03-21T16:23:08.321Z,93291.92
2018-03-21T16:25:34.773Z,93286.84
2018-03-21T16:28:01.142Z,93285.87
2018-03-21T16:30:27.791Z,93289.16
2018-03-21T16:32:54.429Z,93293.48
2018-03-21T16:35:20.915Z,93306.75
2018-03-21T16:37:47.357Z,93299.30
2018-03-21T16:40:14.125Z,93311.01
2018-03-21T16:42:41.435Z,93318.42
2018-03-21T16:45:07.878Z,93322.81
2018-03-21T16:47:34.401Z,93324.77
2018-03-21T16:50:01.189Z,93328.30
2018-03-21T16:52:27.865Z,93326.84
2018-03-21T16:54:54.516Z,93332.87
2018-03-21T16:57:21.095Z,93352.88
2018-03-21T16:59:47.959Z,93354.42
2018-03-21T17:02:14.639Z,93365.79
2018-03-21T17:04:41.075Z,93369.00
2018-03-21T17:07:07.692Z,93365.83
2018-03-21T17:09:34.272Z,93376.25
2018-03-21T17:12:00.966Z,93377.08
2018-03-21T17:14:27.616Z,93377.95
2018-03-21T17:16:54.229Z,93388.56
2018-03-21T17:19:20.684Z,93382.81
2018-03-21T17:21:47.652Z,93393.82
2018-03-21T17:24:14.265Z,93392.17
2018-03-21T17:26:41.070Z,93397.73
2018-03-21T17:29:07.850Z,93397.99
2018-03-21T17:31:34.726Z,93405.76
2018-03-21T17:34:01.427Z,93423.20
2018-03-21T17:36:28.275Z,93416.16
2018-03-21T17:38:55.155Z,93420.47
2018-03-21T17:41:23.043Z,93427.14
2018-03-21T17:43:49.970Z,93425.34
2018-03-21T17:46:16.800Z,93430.08
2018-03-21T17:48:43.562Z,93431.73
2018-03-21T17:51:10.314Z,93430.34
2018-03-21T17:53:37.117Z,93438.82
2018-03-21T17:56:03.903Z,93444.47
2018-03-21T17:58:30.707Z,93445.03
2018-03-21T18:00:57.573Z,93463.22
2018-03-21T18:03:24.554Z,93441.79
2018-03-21T18:05:51.356Z,93446.95
2018-03-21T18:08:18.829Z,93453.45
2018-03-21T18:10:45.966Z,93467.23
2018-03-21T18:13:12.735Z,93463.22
2018-03-21T18:15:39.665Z,93461.06
2018-03-21T18:18:06.551Z,93464.42
2018-03-21T18:20:33.528Z,93463.39
2018-03-21T18:23:00.585Z,93471.97
2018-03-21T18:25:27.861Z,93478.27
2018-03-21T18:27:54.746Z,93488.40
2018-03-21T18:30:21.607Z,93490.55
2018-03-21T18:32:48.779Z,93490.47
2018-03-21T18:35:15.573Z,93495.38
2018-03-21T18:37:42.509Z,93491.86
2018-03-21T18:40:09.246Z,93497.02
2018-03-21T18:42:36.224Z,93501.75
2018-03-21T18:45:03.149Z,93506.80
2018-03-21T18:47:29.917Z,93514.80
2018-03-21T18:49:56.935Z,93520.67
2018-03-21T18:52:24.095Z,93520.33
2018-03-21T18:54:50.989Z,93519.91
2018-03-21T18:57:17.866Z,93523.09
2018-03-21T18:59:44.987Z,93531.47
2018-03-21T19:02:11.893Z,93533.12
2018-03-21T19:04:38.715Z,93537.24
2018-03-21T19:07:05.621Z,93545.92
2018-03-21T19:09:32.398Z,93547.02
2018-03-21T19:12:00.872Z,93550.83
2018-03-21T19:14:27.839Z,93540.83
2018-03-21T19:16:54.695Z,93544.34
2018-03-21T19:19:21.668Z,93548.31
2018-03-21T19:21:48.644Z,93555.32
2018-03-21T19:24:16.122Z,93562.80
2018-03-21T19:26:42.811Z,93563.80
2018-03-21T19:29:09.481Z,93558.30
2018-03-21T19:31:36.346Z,93563.57
2018-03-21T19:34:03.288Z,93571.09
2018-03-21T19:36:30.013Z,93578.23
2018-03-21T19:38:56.858Z,93577.86
2018-03-21T19:41:23.695Z,93580.31
2018-03-21T19:43:50.482Z,93587.67
2018-03-21T19:46:17.301Z,93595.28
2018-03-21T19:48:44.047Z,93595.37
2018-03-21T19:51:10.909Z,93594.62
2018-03-21T19:53:37.746Z,93604.86
2018-03-21T19:56:05.405Z,93602.15
2018-03-21T19:58:32.191Z,93609.20
2018-03-21T20:00:58.854Z,93619.48
2018-03-21T20:03:25.508Z,93624.55
2018-03-21T20:05:52.270Z,93612.52
2018-03-21T20:08:18.937Z,93609.82
2018-03-21T20:10:45.631Z,93620.61
2018-03-21T20:13:12.472Z,93633.22
2018-03-21T20:15:39.145Z,93632.83
2018-03-21T20:18:07.541Z,93625.09
2018-03-21T20:20:35.461Z,93627.67
2018-03-21T20:23:03.023Z,93620.53
2018-03-21T20:25:30.515Z,93624.78
2018-03-21T20:27:58.275Z,93622.00
2018-03-21T20:30:25.353Z,93615.81
2018-03-21T20:32:52.743Z,93620.20
2018-03-21T20:35:19.827Z,93623.39
2018-03-21T20:37:46.525Z,93629.51
2018-03-21T20:40:13.190Z,93636.45
2018-03-21T20:42:39.913Z,93632.81
2018-03-21T20:45:07.324Z,93627.75
2018-03-21T20:47:34.815Z,93627.28
2018-03-21T20:50:01.809Z,93622.83
2018-03-21T20:52:28.942Z,93624.88
2018-03-21T20:54:55.576Z,93642.04
2018-03-21T20:57:22.119Z,93639.80
2018-03-21T20:59:48.652Z,93639.88
2018-03-21T21:02:15.476Z,93644.55
2018-03-21T21:04:42.244Z,93642.61
2018-03-21T21:07:08.679Z,93640.14
2018-03-21T21:09:35.121Z,93644.83
2018-03-21T21:12:01.702Z,93649.19
2018-03-21T21:14:28.082Z,93645.05
2018-03-21T21:16:54.427Z,93649.86
2018-03-21T21:19:20.841Z,93649.47
2018-03-21T21:21:48.328Z,93653.72
2018-03-21T21:24:14.703Z,93643.29
2018-03-21T21:26:41.187Z,93647.98
2018-03-21T21:29:07.523Z,93653.43
2018-03-21T21:31:34.115Z,93653.90
2018-03-21T21:34:00.567Z,93665.91
2018-03-21T21:36:26.911Z,93665.21
2018-03-21T21:38:53.327Z,93663.02
2018-03-21T21:41:19.835Z,93657.55
2018-03-21T21:43:46.255Z,93666.33
2018-03-21T21:46:12.856Z,93669.09
2018-03-21T21:48:39.288Z,93671.15
2018-03-21T21:51:05.757Z,93663.69
2018-03-21T21:53:32.213Z,93671.16
2018-03-21T21:55:58.740Z,93676.53
2018-03-21T21:58:25.186Z,93678.64
2018-03-21T22:00:51.768Z,93688.45
2018-03-21T22:03:18.448Z,93685.47
2018-03-21T22:05:44.967Z,93686.23
2018-03-21T22:08:11.308Z,93680.78
2018-03-21T22:10:38.001Z,93686.84
2018-03-21T22:13:04.500Z,93691.63
2018-03-21T22:15:31.064Z,93688.63
2018-03-21T22:17:57.454Z,93688.72
2018-03-21T22:20:23.839Z,93700.45
2018-03-21T22:22:50.316Z,93704.16
2018-03-21T22:25:16.746Z,93699.23
2018-03-21T22:27:43.162Z,93695.08
2018-03-21T22:30:09.854Z,93702.74
2018-03-21T22:32:36.307Z,93707.09
2018-03-21T22:35:02.757Z,93707.44
2018-03-21T22:37:29.321Z,93700.73
2018-03-21T22:39:55.948Z,93699.88
2018-03-21T22:42:23.265Z,93700.55
2018-03-21T22:44:49.951Z,93697.44
2018-03-21T22:47:16.882Z,93702.73
2018-03-21T22:49:43.251Z,93699.16
2018-03-21T22:52:09.680Z,93701.04
2018-03-21T22:54:36.059Z,93709.43
2018-03-21T22:57:02.409Z,93714.45
2018-03-21T22:59:28.849Z,93707.69
2018-03-21T23:01:55.248Z,93715.48
2018-03-21T23:04:21.600Z,93714.16
2018-03-21T23:06:48.046Z,93718.47
2018-03-21T23:09:14.476Z,93717.74
2018-03-21T23:11:41.055Z,93718.13
2018-03-21T23:14:07.498Z,93710.78
2018-03-21T23:16:33.998Z,93704.80
2018-03-21T23:19:00.444Z,93712.45
2018-03-21T23:21:26.865Z,93710.77
2018-03-21T23:23:53.405Z,93707.23
2018-03-21T23:26:19.884Z,93700.34
2018-03-21T23:28:46.257Z,93707.89
2018-03-21T23:31:12.756Z,93716.27
2018-03-21T23:33:39.107Z,93712.98
2018-03-21T23:36:05.651Z,93705.37
2018-03-21T23:38:31.989Z,93700.94
2018-03-21T23:40:58.592Z,93688.27
2018-03-21T23:43:25.109Z,93693.83
2018-03-21T23:45:51.542Z,93685.80
2018-03-21T23:48:17.905Z,93685.83
2018-03-21T23:50:44.252Z,93688.38
2018-03-21T23:53:10.692Z,93683.08
2018-03-21T23:55:37.049Z,93688.56
2018-03-21T23:58:03.444Z,93688.92
